sensor_id;sensor_type;location;lat;lon;timestamp;pressure;altitude;pressure_sealevel;temperature;humidity
54994;BME280;40891;47.242;8.648;2024-01-16T00:02:19;95867.44;;;0.66;82.69
54994;BME280;40891;47.242;8.648;2024-01-16T00:04:44;95872.91;;;0.62;83.68
54994;BME280;40891;47.242;8.648;2024-01-16T00:07:09;95871.75;;;0.60;82.02
54994;BME280;40891;47.242;8.648;2024-01-16T00:09:35;95869.44;;;0.58;82.12
54994;BME280;40891;47.242;8.648;2024-01-16T00:12:02;95856.88;;;0.64;81.54
54994;BME280;40891;47.242;8.648;2024-01-16T00:14:27;95863.97;;;0.55;83.21
54994;BME280;40891;47.242;8.648;2024-01-16T00:16:53;95857.72;;;0.58;82.05
54994;BME280;40891;47.242;8.648;2024-01-16T00:19:18;95855.41;;;0.53;82.22
54994;BME280;40891;47.242;8.648;2024-01-16T00:21:44;95861.66;;;0.53;84.60
54994;BME280;40891;47.242;8.648;2024-01-16T00:24:13;95864.00;;;0.51;83.24
54994;BME280;40891;47.242;8.648;2024-01-16T00:26:39;95867.16;;;0.43;83.60
54994;BME280;40891;47.242;8.648;2024-01-16T00:29:04;95873.47;;;0.40;83.63
54994;BME280;40891;47.242;8.648;2024-01-16T00:31:29;95870.34;;;0.38;83.68
54994;BME280;40891;47.242;8.648;2024-01-16T00:33:54;95862.16;;;0.34;83.51
54994;BME280;40891;47.242;8.648;2024-01-16T00:36:20;95870.34;;;0.34;83.65
54994;BME280;40891;47.242;8.648;2024-01-16T00:38:45;95867.63;;;0.38;82.36
54994;BME280;40891;47.242;8.648;2024-01-16T00:41:12;95867.22;;;0.36;83.05
54994;BME280;40891;47.242;8.648;2024-01-16T00:43:37;95859.03;;;0.32;82.28
54994;BME280;40891;47.242;8.648;2024-01-16T00:46:03;95853.53;;;0.36;82.50
54994;BME280;40891;47.242;8.648;2024-01-16T00:48:28;95862.56;;;0.29;84.37
54994;BME280;40891;47.242;8.648;2024-01-16T00:50:54;95867.66;;;0.31;82.56
54994;BME280;40891;47.242;8.648;2024-01-16T00:53:19;95875.06;;;0.30;82.74
54994;BME280;40891;47.242;8.648;2024-01-16T00:55:44;95866.09;;;0.30;82.43
54994;BME280;40891;47.242;8.648;2024-01-16T00:58:09;95870.38;;;0.31;82.62
54994;BME280;40891;47.242;8.648;2024-01-16T01:00:35;95864.13;;;0.27;82.86
54994;BME280;40891;47.242;8.648;2024-01-16T01:03:05;95873.91;;;0.28;82.03
54994;BME280;40891;47.242;8.648;2024-01-16T01:05:30;95873.53;;;0.26;80.84
54994;BME280;40891;47.242;8.648;2024-01-16T01:07:56;95862.97;;;0.24;81.00
54994;BME280;40891;47.242;8.648;2024-01-16T01:10:21;95871.97;;;0.25;81.23
54994;BME280;40891;47.242;8.648;2024-01-16T01:12:47;95873.53;;;0.22;81.68
54994;BME280;40891;47.242;8.648;2024-01-16T01:15:12;95879.78;;;0.23;81.98
54994;BME280;40891;47.242;8.648;2024-01-16T01:17:39;95878.22;;;0.22;81.44
54994;BME280;40891;47.242;8.648;2024-01-16T01:20:05;95878.22;;;0.22;80.67
54994;BME280;40891;47.242;8.648;2024-01-16T01:22:30;95883.69;;;0.22;80.82
54994;BME280;40891;47.242;8.648;2024-01-16T01:24:55;95886.44;;;0.18;79.77
54994;BME280;40891;47.242;8.648;2024-01-16T01:27:21;95882.94;;;0.21;81.31
54994;BME280;40891;47.242;8.648;2024-01-16T01:29:46;95885.25;;;0.23;80.87
54994;BME280;40891;47.242;8.648;2024-01-16T01:32:11;95884.50;;;0.19;80.55
54994;BME280;40891;47.242;8.648;2024-01-16T01:34:37;95888.00;;;0.19;80.42
54994;BME280;40891;47.242;8.648;2024-01-16T01:37:03;95885.66;;;0.18;81.39
54994;BME280;40891;47.242;8.648;2024-01-16T01:39:29;95893.47;;;0.16;82.00
54994;BME280;40891;47.242;8.648;2024-01-16T01:41:55;95896.22;;;0.16;82.43
54994;BME280;40891;47.242;8.648;2024-01-16T01:44:20;95904.00;;;0.17;82.59
54994;BME280;40891;47.242;8.648;2024-01-16T01:46:46;95900.13;;;0.18;83.17
54994;BME280;40891;47.242;8.648;2024-01-16T01:49:13;95897.75;;;0.20;83.56
54994;BME280;40891;47.242;8.648;2024-01-16T01:51:39;95887.63;;;0.21;83.69
54994;BME280;40891;47.242;8.648;2024-01-16T01:54:04;95893.06;;;0.21;82.73
54994;BME280;40891;47.242;8.648;2024-01-16T01:56:30;95891.13;;;0.18;84.01
54994;BME280;40891;47.242;8.648;2024-01-16T01:58:57;95896.22;;;0.16;84.34
54994;BME280;40891;47.242;8.648;2024-01-16T02:01:24;95897.38;;;0.15;84.10
54994;BME280;40891;47.242;8.648;2024-01-16T02:03:52;95904.41;;;0.16;85.02
54994;BME280;40891;47.242;8.648;2024-01-16T02:06:17;95911.81;;;0.15;83.89
54994;BME280;40891;47.242;8.648;2024-01-16T02:08:44;95899.72;;;0.20;84.69
54994;BME280;40891;47.242;8.648;2024-01-16T02:11:10;95897.75;;;0.17;82.58
54994;BME280;40891;47.242;8.648;2024-01-16T02:13:35;95891.91;;;0.18;84.40
54994;BME280;40891;47.242;8.648;2024-01-16T02:16:01;95881.78;;;0.15;84.71
54994;BME280;40891;47.242;8.648;2024-01-16T02:18:28;95882.56;;;0.12;83.02
54994;BME280;40891;47.242;8.648;2024-01-16T02:20:56;95877.91;;;0.06;84.43
54994;BME280;40891;47.242;8.648;2024-01-16T02:23:27;95883.00;;;0.04;85.47
54994;BME280;40891;47.242;8.648;2024-01-16T02:25:53;95871.69;;;-0.02;85.70
54994;BME280;40891;47.242;8.648;2024-01-16T02:28:19;95871.72;;;-0.06;84.81
54994;BME280;40891;47.242;8.648;2024-01-16T02:30:44;95869.00;;;-0.06;84.31
54994;BME280;40891;47.242;8.648;2024-01-16T02:33:10;95868.59;;;-0.08;86.24
54994;BME280;40891;47.242;8.648;2024-01-16T02:35:35;95874.09;;;-0.15;85.39
54994;BME280;40891;47.242;8.648;2024-01-16T02:38:00;95866.28;;;-0.13;85.87
54994;BME280;40891;47.242;8.648;2024-01-16T02:40:26;95873.72;;;-0.17;85.86
54994;BME280;40891;47.242;8.648;2024-01-16T02:42:51;95869.00;;;-0.13;86.10
54994;BME280;40891;47.242;8.648;2024-01-16T02:45:17;95872.94;;;-0.17;85.53
54994;BME280;40891;47.242;8.648;2024-01-16T02:47:42;95881.91;;;-0.20;85.24
54994;BME280;40891;47.242;8.648;2024-01-16T02:50:08;95870.19;;;-0.21;86.77
54994;BME280;40891;47.242;8.648;2024-01-16T02:52:35;95869.44;;;-0.25;89.13
54994;BME280;40891;47.242;8.648;2024-01-16T02:55:00;95865.16;;;-0.26;89.39
54994;BME280;40891;47.242;8.648;2024-01-16T02:57:25;95865.16;;;-0.29;89.31
54994;BME280;40891;47.242;8.648;2024-01-16T02:59:51;95867.91;;;-0.29;88.05
54994;BME280;40891;47.242;8.648;2024-01-16T03:02:16;95859.72;;;-0.29;89.06
54994;BME280;40891;47.242;8.648;2024-01-16T03:04:41;95867.50;;;-0.24;90.60
54994;BME280;40891;47.242;8.648;2024-01-16T03:07:06;95858.13;;;-0.23;90.76
54994;BME280;40891;47.242;8.648;2024-01-16T03:09:32;95862.41;;;-0.26;89.51
54994;BME280;40891;47.242;8.648;2024-01-16T03:11:58;95855.81;;;-0.32;90.21
54994;BME280;40891;47.242;8.648;2024-01-16T03:14:24;95863.22;;;-0.32;89.75
54994;BME280;40891;47.242;8.648;2024-01-16T03:16:49;95857.78;;;-0.36;91.23
54994;BME280;40891;47.242;8.648;2024-01-16T03:19:14;95855.47;;;-0.41;90.09
54994;BME280;40891;47.242;8.648;2024-01-16T03:21:40;95853.91;;;-0.45;90.76
54994;BME280;40891;47.242;8.648;2024-01-16T03:24:06;95859.75;;;-0.47;92.02
54994;BME280;40891;47.242;8.648;2024-01-16T03:26:31;95861.34;;;-0.53;91.76
54994;BME280;40891;47.242;8.648;2024-01-16T03:28:58;95862.91;;;-0.55;91.35
54994;BME280;40891;47.242;8.648;2024-01-16T03:31:23;95868.75;;;-0.57;91.09
54994;BME280;40891;47.242;8.648;2024-01-16T03:33:48;95864.47;;;-0.58;90.42
54994;BME280;40891;47.242;8.648;2024-01-16T03:36:13;95855.50;;;-0.62;91.00
54994;BME280;40891;47.242;8.648;2024-01-16T03:38:44;95852.00;;;-0.66;91.37
54994;BME280;40891;47.242;8.648;2024-01-16T03:41:12;95859.81;;;-0.64;91.18
54994;BME280;40891;47.242;8.648;2024-01-16T03:43:39;95857.47;;;-0.70;91.48
54994;BME280;40891;47.242;8.648;2024-01-16T03:46:04;95855.53;;;-0.73;92.68
54994;BME280;40891;47.242;8.648;2024-01-16T03:48:29;95855.53;;;-0.76;92.04
54994;BME280;40891;47.242;8.648;2024-01-16T03:50:55;95853.19;;;-0.78;91.45
54994;BME280;40891;47.242;8.648;2024-01-16T03:53:21;95849.69;;;-0.82;91.25
54994;BME280;40891;47.242;8.648;2024-01-16T03:55:47;95848.94;;;-0.86;91.94
54994;BME280;40891;47.242;8.648;2024-01-16T03:58:12;95845.81;;;-0.91;91.74
54994;BME280;40891;47.242;8.648;2024-01-16T04:00:38;95847.38;;;-0.97;91.88
54994;BME280;40891;47.242;8.648;2024-01-16T04:03:03;95847.41;;;-1.04;92.38
54994;BME280;40891;47.242;8.648;2024-01-16T04:05:29;95843.50;;;-1.07;92.00
54994;BME280;40891;47.242;8.648;2024-01-16T04:07:56;95840.34;;;-1.09;92.96
54994;BME280;40891;47.242;8.648;2024-01-16T04:10:22;95833.75;;;-1.15;93.20
54994;BME280;40891;47.242;8.648;2024-01-16T04:12:47;95824.00;;;-1.19;93.47
54994;BME280;40891;47.242;8.648;2024-01-16T04:15:12;95828.31;;;-1.25;94.65
54994;BME280;40891;47.242;8.648;2024-01-16T04:17:37;95821.28;;;-1.30;95.26
54994;BME280;40891;47.242;8.648;2024-01-16T04:20:03;95824.03;;;-1.33;97.10
54994;BME280;40891;47.242;8.648;2024-01-16T04:22:30;95830.25;;;-1.37;96.28
54994;BME280;40891;47.242;8.648;2024-01-16T04:24:55;95823.63;;;-1.43;96.04
54994;BME280;40891;47.242;8.648;2024-01-16T04:27:21;95834.16;;;-1.45;96.20
54994;BME280;40891;47.242;8.648;2024-01-16T04:29:46;95827.13;;;-1.46;95.10
54994;BME280;40891;47.242;8.648;2024-01-16T04:32:11;95829.47;;;-1.48;95.72
54994;BME280;40891;47.242;8.648;2024-01-16T04:34:36;95834.91;;;-1.51;95.46
54994;BME280;40891;47.242;8.648;2024-01-16T04:37:02;95832.56;;;-1.53;95.84
54994;BME280;40891;47.242;8.648;2024-01-16T04:39:28;95831.81;;;-1.57;97.24
54994;BME280;40891;47.242;8.648;2024-01-16T04:41:53;95831.41;;;-1.62;96.94
54994;BME280;40891;47.242;8.648;2024-01-16T04:44:19;95833.34;;;-1.63;96.81
54994;BME280;40891;47.242;8.648;2024-01-16T04:46:44;95832.56;;;-1.67;96.85
54994;BME280;40891;47.242;8.648;2024-01-16T04:49:09;95838.00;;;-1.70;97.33
54994;BME280;40891;47.242;8.648;2024-01-16T04:51:34;95839.16;;;-1.71;97.73
54994;BME280;40891;47.242;8.648;2024-01-16T04:54:00;95832.94;;;-1.72;98.13
54994;BME280;40891;47.242;8.648;2024-01-16T04:56:25;95834.13;;;-1.73;99.17
54994;BME280;40891;47.242;8.648;2024-01-16T04:58:50;95832.56;;;-1.74;98.85
54994;BME280;40891;47.242;8.648;2024-01-16T05:01:17;95831.38;;;-1.69;98.86
54994;BME280;40891;47.242;8.648;2024-01-16T05:03:42;95820.88;;;-1.71;98.10
54994;BME280;40891;47.242;8.648;2024-01-16T05:06:15;95825.16;;;-1.70;98.49
54994;BME280;40891;47.242;8.648;2024-01-16T05:08:41;95815.44;;;-1.71;99.32
54994;BME280;40891;47.242;8.648;2024-01-16T05:11:07;95813.09;;;-1.72;99.25
54994;BME280;40891;47.242;8.648;2024-01-16T05:13:33;95803.72;;;-1.75;98.47
54994;BME280;40891;47.242;8.648;2024-01-16T05:15:58;95814.63;;;-1.75;98.61
54994;BME280;40891;47.242;8.648;2024-01-16T05:18:23;95808.00;;;-1.77;98.96
54994;BME280;40891;47.242;8.648;2024-01-16T05:20:48;95804.91;;;-1.76;99.15
54994;BME280;40891;47.242;8.648;2024-01-16T05:23:14;95799.84;;;-1.74;98.91
54994;BME280;40891;47.242;8.648;2024-01-16T05:25:39;95794.00;;;-1.72;97.30
54994;BME280;40891;47.242;8.648;2024-01-16T05:28:04;95797.13;;;-1.67;97.37
54994;BME280;40891;47.242;8.648;2024-01-16T05:30:30;95792.88;;;-1.64;97.23
54994;BME280;40891;47.242;8.648;2024-01-16T05:32:55;95795.19;;;-1.63;97.62
54994;BME280;40891;47.242;8.648;2024-01-16T05:35:21;95786.25;;;-1.53;96.82
54994;BME280;40891;47.242;8.648;2024-01-16T05:37:46;95784.28;;;-1.56;96.59
54994;BME280;40891;47.242;8.648;2024-01-16T05:40:12;95779.63;;;-1.55;96.99
54994;BME280;40891;47.242;8.648;2024-01-16T05:42:38;95784.28;;;-1.56;97.33
54994;BME280;40891;47.242;8.648;2024-01-16T05:45:04;95781.19;;;-1.58;96.61
54994;BME280;40891;47.242;8.648;2024-01-16T05:47:29;95787.81;;;-1.59;97.34
54994;BME280;40891;47.242;8.648;2024-01-16T05:49:56;95775.34;;;-1.60;96.75
54994;BME280;40891;47.242;8.648;2024-01-16T05:52:22;95774.97;;;-1.62;97.05
54994;BME280;40891;47.242;8.648;2024-01-16T05:54:47;95771.84;;;-1.64;97.33
54994;BME280;40891;47.242;8.648;2024-01-16T05:57:12;95777.31;;;-1.64;97.40
54994;BME280;40891;47.242;8.648;2024-01-16T05:59:38;95776.53;;;-1.64;98.04
54994;BME280;40891;47.242;8.648;2024-01-16T06:02:03;95775.72;;;-1.65;98.17
54994;BME280;40891;47.242;8.648;2024-01-16T06:04:28;95767.94;;;-1.63;98.45
54994;BME280;40891;47.242;8.648;2024-01-16T06:06:53;95768.34;;;-1.64;98.48
54994;BME280;40891;47.242;8.648;2024-01-16T06:09:19;95778.06;;;-1.67;98.21
54994;BME280;40891;47.242;8.648;2024-01-16T06:11:44;95774.19;;;-1.66;98.13
54994;BME280;40891;47.242;8.648;2024-01-16T06:14:09;95772.63;;;-1.67;98.08
54994;BME280;40891;47.242;8.648;2024-01-16T06:16:37;95778.84;;;-1.66;97.49
54994;BME280;40891;47.242;8.648;2024-01-16T06:19:02;95769.50;;;-1.69;97.04
54994;BME280;40891;47.242;8.648;2024-01-16T06:21:27;95769.50;;;-1.65;97.02
54994;BME280;40891;47.242;8.648;2024-01-16T06:23:53;95768.31;;;-1.68;96.76
54994;BME280;40891;47.242;8.648;2024-01-16T06:26:18;95766.03;;;-1.66;97.54
54994;BME280;40891;47.242;8.648;2024-01-16T06:28:44;95770.28;;;-1.65;97.47
54994;BME280;40891;47.242;8.648;2024-01-16T06:31:09;95771.44;;;-1.62;97.83
54994;BME280;40891;47.242;8.648;2024-01-16T06:33:35;95772.25;;;-1.62;97.46
54994;BME280;40891;47.242;8.648;2024-01-16T06:36:01;95767.16;;;-1.60;98.30
54994;BME280;40891;47.242;8.648;2024-01-16T06:38:29;95773.41;;;-1.59;98.51
54994;BME280;40891;47.242;8.648;2024-01-16T06:40:54;95767.97;;;-1.59;98.82
54994;BME280;40891;47.242;8.648;2024-01-16T06:43:20;95768.72;;;-1.55;99.16
54994;BME280;40891;47.242;8.648;2024-01-16T06:45:45;95762.50;;;-1.56;98.84
54994;BME280;40891;47.242;8.648;2024-01-16T06:48:10;95765.63;;;-1.57;98.56
54994;BME280;40891;47.242;8.648;2024-01-16T06:50:36;95762.91;;;-1.57;99.10
54994;BME280;40891;47.242;8.648;2024-01-16T06:53:01;95762.50;;;-1.56;99.26
54994;BME280;40891;47.242;8.648;2024-01-16T06:55:27;95767.94;;;-1.56;99.18
54994;BME280;40891;47.242;8.648;2024-01-16T06:57:52;95766.41;;;-1.57;99.42
54994;BME280;40891;47.242;8.648;2024-01-16T07:00:18;95764.84;;;-1.58;99.46
54994;BME280;40891;47.242;8.648;2024-01-16T07:02:43;95761.34;;;-1.55;98.93
54994;BME280;40891;47.242;8.648;2024-01-16T07:05:09;95766.78;;;-1.48;98.36
54994;BME280;40891;47.242;8.648;2024-01-16T07:07:35;95769.91;;;-1.53;98.51
54994;BME280;40891;47.242;8.648;2024-01-16T07:10:00;95773.78;;;-1.54;98.25
54994;BME280;40891;47.242;8.648;2024-01-16T07:12:25;95761.34;;;-1.55;98.54
54994;BME280;40891;47.242;8.648;2024-01-16T07:14:51;95753.16;;;-1.55;98.45
54994;BME280;40891;47.242;8.648;2024-01-16T07:17:16;95759.38;;;-1.58;98.63
54994;BME280;40891;47.242;8.648;2024-01-16T07:19:41;95760.94;;;-1.60;98.69
54994;BME280;40891;47.242;8.648;2024-01-16T07:22:07;95758.22;;;-1.60;98.53
54994;BME280;40891;47.242;8.648;2024-01-16T07:24:32;95760.16;;;-1.61;98.79
54994;BME280;40891;47.242;8.648;2024-01-16T07:26:57;95761.34;;;-1.62;98.95
54994;BME280;40891;47.242;8.648;2024-01-16T07:29:23;95763.28;;;-1.59;98.54
54994;BME280;40891;47.242;8.648;2024-01-16T07:31:48;95758.59;;;-1.58;99.01
54994;BME280;40891;47.242;8.648;2024-01-16T07:34:14;95757.81;;;-1.55;98.39
54994;BME280;40891;47.242;8.648;2024-01-16T07:36:45;95758.63;;;-1.55;98.54
54994;BME280;40891;47.242;8.648;2024-01-16T07:39:10;95750.41;;;-1.51;98.06
54994;BME280;40891;47.242;8.648;2024-01-16T07:41:35;95762.88;;;-1.47;97.38
54994;BME280;40891;47.242;8.648;2024-01-16T07:44:00;95753.16;;;-1.41;97.25
54994;BME280;40891;47.242;8.648;2024-01-16T07:46:26;95755.84;;;-1.23;95.34
54994;BME280;40891;47.242;8.648;2024-01-16T07:48:51;95758.19;;;-1.14;94.89
54994;BME280;40891;47.242;8.648;2024-01-16T07:51:16;95757.00;;;-1.13;94.48
54994;BME280;40891;47.242;8.648;2024-01-16T07:53:42;95757.38;;;-1.04;92.63
54994;BME280;40891;47.242;8.648;2024-01-16T07:56:07;95754.63;;;-1.01;92.34
54994;BME280;40891;47.242;8.648;2024-01-16T07:58:32;95750.31;;;-0.84;90.88
54994;BME280;40891;47.242;8.648;2024-01-16T08:00:58;95751.50;;;-0.99;92.34
54994;BME280;40891;47.242;8.648;2024-01-16T08:03:23;95755.03;;;-1.02;92.26
54994;BME280;40891;47.242;8.648;2024-01-16T08:05:48;95752.31;;;-0.95;92.33
54994;BME280;40891;47.242;8.648;2024-01-16T08:08:14;95750.25;;;-0.70;91.80
54994;BME280;40891;47.242;8.648;2024-01-16T08:10:42;95744.28;;;-0.33;90.84
54994;BME280;40891;47.242;8.648;2024-01-16T08:13:07;95742.03;;;0.10;88.04
54994;BME280;40891;47.242;8.648;2024-01-16T08:15:33;95735.81;;;0.57;85.77
54994;BME280;40891;47.242;8.648;2024-01-16T08:17:59;95741.19;;;1.46;81.66
54994;BME280;40891;47.242;8.648;2024-01-16T08:20:25;95736.59;;;2.72;74.91
54994;BME280;40891;47.242;8.648;2024-01-16T08:22:51;95721.97;;;4.00;69.18
54994;BME280;40891;47.242;8.648;2024-01-16T08:25:16;95712.41;;;5.63;60.92
54994;BME280;40891;47.242;8.648;2024-01-16T08:27:42;95707.03;;;6.38;56.93
54994;BME280;40891;47.242;8.648;2024-01-16T08:30:09;95703.34;;;6.41;56.21
54994;BME280;40891;47.242;8.648;2024-01-16T08:32:35;95695.84;;;7.14;54.92
54994;BME280;40891;47.242;8.648;2024-01-16T08:35:00;95686.63;;;7.94;50.37
54994;BME280;40891;47.242;8.648;2024-01-16T08:37:26;95684.41;;;8.33;47.40
54994;BME280;40891;47.242;8.648;2024-01-16T08:39:51;95681.28;;;8.70;47.75
54994;BME280;40891;47.242;8.648;2024-01-16T08:42:17;95684.91;;;9.07;46.44
54994;BME280;40891;47.242;8.648;2024-01-16T08:44:43;95684.56;;;8.16;47.42
54994;BME280;40891;47.242;8.648;2024-01-16T08:47:08;95680.13;;;8.99;46.22
54994;BME280;40891;47.242;8.648;2024-01-16T08:49:34;95662.63;;;10.25;41.36
54994;BME280;40891;47.242;8.648;2024-01-16T08:52:00;95665.81;;;9.82;42.08
54994;BME280;40891;47.242;8.648;2024-01-16T08:54:25;95666.44;;;9.49;42.75
54994;BME280;40891;47.242;8.648;2024-01-16T08:56:53;95679.72;;;8.60;44.36
54994;BME280;40891;47.242;8.648;2024-01-16T08:59:19;95670.44;;;9.39;43.39
54994;BME280;40891;47.242;8.648;2024-01-16T09:01:44;95672.59;;;9.81;41.96
54994;BME280;40891;47.242;8.648;2024-01-16T09:04:09;95662.63;;;10.25;41.21
54994;BME280;40891;47.242;8.648;2024-01-16T09:06:35;95658.97;;;10.52;39.91
54994;BME280;40891;47.242;8.648;2024-01-16T09:09:00;95650.84;;;11.19;38.74
54994;BME280;40891;47.242;8.648;2024-01-16T09:11:26;95655.06;;;10.91;39.37
54994;BME280;40891;47.242;8.648;2024-01-16T09:13:51;95648.91;;;11.11;38.94
54994;BME280;40891;47.242;8.648;2024-01-16T09:16:17;95637.53;;;11.61;37.34
54994;BME280;40891;47.242;8.648;2024-01-16T09:18:42;95639.50;;;12.14;37.02
54994;BME280;40891;47.242;8.648;2024-01-16T09:21:07;95633.78;;;12.52;35.96
54994;BME280;40891;47.242;8.648;2024-01-16T09:23:33;95632.69;;;12.79;36.14
54994;BME280;40891;47.242;8.648;2024-01-16T09:25:58;95640.47;;;12.25;36.83
54994;BME280;40891;47.242;8.648;2024-01-16T09:28:23;95634.78;;;12.84;36.39
54994;BME280;40891;47.242;8.648;2024-01-16T09:30:49;95637.91;;;13.92;33.89
54994;BME280;40891;47.242;8.648;2024-01-16T09:33:15;95648.13;;;13.75;33.52
54994;BME280;40891;47.242;8.648;2024-01-16T09:35:41;95640.50;;;13.96;33.15
54994;BME280;40891;47.242;8.648;2024-01-16T09:38:07;95633.69;;;14.59;32.89
54994;BME280;40891;47.242;8.648;2024-01-16T09:40:33;95630.72;;;13.86;33.43
54994;BME280;40891;47.242;8.648;2024-01-16T09:42:58;95640.75;;;13.52;34.61
54994;BME280;40891;47.242;8.648;2024-01-16T09:45:24;95633.66;;;15.44;32.28
54994;BME280;40891;47.242;8.648;2024-01-16T09:47:51;95635.84;;;15.18;32.89
54994;BME280;40891;47.242;8.648;2024-01-16T09:50:17;95627.19;;;15.75;31.76
54994;BME280;40891;47.242;8.648;2024-01-16T09:52:45;95636.16;;;15.31;31.61
54994;BME280;40891;47.242;8.648;2024-01-16T09:55:10;95634.53;;;14.40;33.69
54994;BME280;40891;47.242;8.648;2024-01-16T09:57:39;95643.88;;;14.31;33.41
54994;BME280;40891;47.242;8.648;2024-01-16T10:00:09;95639.47;;;13.27;35.93
54994;BME280;40891;47.242;8.648;2024-01-16T10:02:39;95639.75;;;13.75;34.15
54994;BME280;40891;47.242;8.648;2024-01-16T10:05:06;95637.47;;;13.99;34.41
54994;BME280;40891;47.242;8.648;2024-01-16T10:07:33;95641.72;;;13.49;34.67
54994;BME280;40891;47.242;8.648;2024-01-16T10:09:59;95641.31;;;13.56;34.98
54994;BME280;40891;47.242;8.648;2024-01-16T10:12:25;95643.06;;;12.14;37.08
54994;BME280;40891;47.242;8.648;2024-01-16T10:14:50;95638.34;;;11.91;38.70
54994;BME280;40891;47.242;8.648;2024-01-16T10:17:17;95630.34;;;10.93;40.22
54994;BME280;40891;47.242;8.648;2024-01-16T10:19:51;95628.00;;;11.15;39.21
54994;BME280;40891;47.242;8.648;2024-01-16T10:22:22;95625.88;;;11.10;40.64
54994;BME280;40891;47.242;8.648;2024-01-16T10:24:50;95633.66;;;10.17;42.04
54994;BME280;40891;47.242;8.648;2024-01-16T10:27:16;95635.09;;;9.85;43.35
54994;BME280;40891;47.242;8.648;2024-01-16T10:29:57;95643.69;;;9.96;42.93
54994;BME280;40891;47.242;8.648;2024-01-16T10:32:30;95616.91;;;12.76;38.38
54994;BME280;40891;47.242;8.648;2024-01-16T10:37:29;95599.47;;;14.75;33.81
54994;BME280;40891;47.242;8.648;2024-01-16T10:39:54;95606.31;;;14.74;33.87
54994;BME280;40891;47.242;8.648;2024-01-16T10:42:20;95596.34;;;15.63;32.97
54994;BME280;40891;47.242;8.648;2024-01-16T10:44:54;95587.72;;;16.00;31.55
54994;BME280;40891;47.242;8.648;2024-01-16T10:47:21;95580.03;;;17.00;30.81
54994;BME280;40891;47.242;8.648;2024-01-16T10:49:47;95588.16;;;15.71;31.65
54994;BME280;40891;47.242;8.648;2024-01-16T10:52:12;95601.31;;;14.89;32.41
54994;BME280;40891;47.242;8.648;2024-01-16T10:54:41;95607.66;;;13.65;34.68
54994;BME280;40891;47.242;8.648;2024-01-16T10:57:06;95606.38;;;12.16;38.96
54994;BME280;40891;47.242;8.648;2024-01-16T11:02:03;95613.56;;;11.79;38.30
54994;BME280;40891;47.242;8.648;2024-01-16T11:04:30;95608.88;;;11.32;39.91
54994;BME280;40891;47.242;8.648;2024-01-16T11:06:57;95602.00;;;10.80;40.77
54994;BME280;40891;47.242;8.648;2024-01-16T11:09:24;95612.53;;;10.01;43.57
54994;BME280;40891;47.242;8.648;2024-01-16T11:11:50;95596.66;;;9.93;44.59
54994;BME280;40891;47.242;8.648;2024-01-16T11:14:19;95599.47;;;9.84;44.49
54994;BME280;40891;47.242;8.648;2024-01-16T11:16:47;95594.72;;;10.82;42.38
54994;BME280;40891;47.242;8.648;2024-01-16T11:19:13;95579.84;;;12.20;39.68
54994;BME280;40891;47.242;8.648;2024-01-16T11:21:39;95568.75;;;13.87;36.69
54994;BME280;40891;47.242;8.648;2024-01-16T11:24:05;95554.34;;;16.24;31.89
54994;BME280;40891;47.242;8.648;2024-01-16T11:26:34;95553.66;;;17.20;30.77
54994;BME280;40891;47.242;8.648;2024-01-16T11:31:51;95542.44;;;18.43;28.56
54994;BME280;40891;47.242;8.648;2024-01-16T11:37:12;95532.13;;;18.21;28.03
54994;BME280;40891;47.242;8.648;2024-01-16T11:39:38;95531.84;;;17.89;28.33
54994;BME280;40891;47.242;8.648;2024-01-16T11:42:04;95533.41;;;15.81;31.90
54994;BME280;40891;47.242;8.648;2024-01-16T11:44:49;95533.88;;;15.46;32.14
54994;BME280;40891;47.242;8.648;2024-01-16T11:47:25;95529.84;;;15.97;31.98
54994;BME280;40891;47.242;8.648;2024-01-16T11:50:07;95520.91;;;16.49;30.43
54994;BME280;40891;47.242;8.648;2024-01-16T11:52:44;95519.94;;;15.96;31.95
54994;BME280;40891;47.242;8.648;2024-01-16T11:58:29;95512.25;;;17.32;30.05
54994;BME280;40891;47.242;8.648;2024-01-16T12:01:03;95512.03;;;16.00;31.07
54994;BME280;40891;47.242;8.648;2024-01-16T12:03:30;95510.22;;;15.86;32.33
54994;BME280;40891;47.242;8.648;2024-01-16T12:05:56;95518.97;;;15.13;32.47
54994;BME280;40891;47.242;8.648;2024-01-16T12:08:22;95510.25;;;14.94;33.16
54994;BME280;40891;47.242;8.648;2024-01-16T12:10:47;95521.66;;;13.75;34.32
54994;BME280;40891;47.242;8.648;2024-01-16T12:13:13;95521.88;;;13.71;35.90
54994;BME280;40891;47.242;8.648;2024-01-16T12:15:39;95515.25;;;14.00;34.91
54994;BME280;40891;47.242;8.648;2024-01-16T12:18:04;95520.16;;;13.28;35.30
54994;BME280;40891;47.242;8.648;2024-01-16T12:20:31;95519.97;;;12.91;36.36
54994;BME280;40891;47.242;8.648;2024-01-16T12:22:59;95514.41;;;12.16;38.31
54994;BME280;40891;47.242;8.648;2024-01-16T12:25:26;95516.25;;;12.04;38.27
54994;BME280;40891;47.242;8.648;2024-01-16T12:27:58;95513.28;;;11.93;39.07
54994;BME280;40891;47.242;8.648;2024-01-16T12:30:29;95516.63;;;11.24;40.57
54994;BME280;40891;47.242;8.648;2024-01-16T12:33:11;95519.72;;;10.50;42.85
54994;BME280;40891;47.242;8.648;2024-01-16T12:35:42;95520.69;;;9.81;43.92
54994;BME280;40891;47.242;8.648;2024-01-16T12:38:09;95527.19;;;9.00;46.13
54994;BME280;40891;47.242;8.648;2024-01-16T12:40:36;95524.88;;;8.89;47.21
54994;BME280;40891;47.242;8.648;2024-01-16T12:43:05;95515.78;;;8.53;48.05
54994;BME280;40891;47.242;8.648;2024-01-16T12:45:31;95514.28;;;8.12;48.95
54994;BME280;40891;47.242;8.648;2024-01-16T12:47:59;95515.03;;;7.94;49.96
54994;BME280;40891;47.242;8.648;2024-01-16T12:50:26;95514.81;;;7.80;52.12
54994;BME280;40891;47.242;8.648;2024-01-16T12:53:11;95516.56;;;7.95;49.80
54994;BME280;40891;47.242;8.648;2024-01-16T12:55:39;95519.31;;;7.95;49.83
54994;BME280;40891;47.242;8.648;2024-01-16T12:58:21;95518.72;;;8.49;48.36
54994;BME280;40891;47.242;8.648;2024-01-16T13:00:50;95506.03;;;9.30;46.49
54994;BME280;40891;47.242;8.648;2024-01-16T13:03:17;95492.03;;;10.55;43.66
54994;BME280;40891;47.242;8.648;2024-01-16T13:05:43;95479.72;;;13.43;38.68
54994;BME280;40891;47.242;8.648;2024-01-16T13:08:09;95455.25;;;16.85;32.88
54994;BME280;40891;47.242;8.648;2024-01-16T13:10:34;95441.47;;;18.04;30.14
54994;BME280;40891;47.242;8.648;2024-01-16T13:13:21;95421.03;;;20.46;25.18